createdAt,value
2019-02-06T00:01:15.819Z,102618.87
2019-02-06T00:03:46.002Z,102613.26
2019-02-06T00:06:16.289Z,102604.58
2019-02-06T00:08:46.697Z,102604.16
2019-02-06T00:11:17.309Z,102606.84
2019-02-06T00:13:47.849Z,102606.44
2019-02-06T00:16:18.157Z,102605.55
2019-02-06T00:18:48.463Z,102602.16
2019-02-06T00:21:20.673Z,102594.73
2019-02-06T00:23:50.930Z,102598.17
2019-02-06T00:26:21.029Z,102592.97
2019-02-06T00:28:51.282Z,102590.84
2019-02-06T00:31:21.475Z,102588.23
2019-02-06T00:33:51.794Z,102572.08
2019-02-06T00:36:22.068Z,102572.50
2019-02-06T00:38:52.739Z,102564.14
2019-02-06T00:41:22.954Z,102569.75
2019-02-06T00:43:53.358Z,102563.58
2019-02-06T00:46:23.613Z,102558.30
2019-02-06T00:48:53.867Z,102559.13
2019-02-06T00:51:24.093Z,102559.50
2019-02-06T00:53:54.544Z,102565.85
2019-02-06T00:56:24.891Z,102548.72
2019-02-06T00:58:55.164Z,102547.10
2019-02-06T01:01:25.682Z,102552.71
2019-02-06T01:03:56.032Z,102550.02
2019-02-06T01:06:26.673Z,102540.42
2019-02-06T01:08:56.950Z,102544.32
2019-02-06T01:11:27.207Z,102538.23
2019-02-06T01:13:57.458Z,102525.58
2019-02-06T01:16:27.788Z,102522.59
2019-02-06T01:18:58.030Z,102514.30
2019-02-06T01:21:28.643Z,102519.08
2019-02-06T01:23:58.885Z,102523.06
2019-02-06T01:26:29.132Z,102516.98
2019-02-06T01:28:59.303Z,102511.78
2019-02-06T01:31:31.045Z,102510.95
2019-02-06T01:34:01.433Z,102508.77
2019-02-06T01:36:31.772Z,102497.55
2019-02-06T01:39:02.082Z,102499.27
2019-02-06T01:41:32.297Z,102496.66
2019-02-06T01:44:02.660Z,102499.77
2019-02-06T01:46:33.007Z,102488.08
2019-02-06T01:49:03.243Z,102485.06
2019-02-06T01:51:33.541Z,102479.45
2019-02-06T01:54:03.785Z,102480.84
2019-02-06T01:56:42.406Z,102468.64
2019-02-06T01:59:12.668Z,102460.47
2019-02-06T02:01:42.936Z,102461.34
2019-02-06T02:04:13.294Z,102453.14
2019-02-06T02:06:43.520Z,102443.58
2019-02-06T02:09:19.564Z,102441.86
2019-02-06T02:11:49.966Z,102427.98
2019-02-06T02:14:20.313Z,102429.75
2019-02-06T02:16:51.236Z,102423.17
2019-02-06T02:19:21.461Z,102428.78
2019-02-06T02:21:51.783Z,102422.78
2019-02-06T02:24:22.163Z,102413.28
2019-02-06T02:26:52.429Z,102401.91
2019-02-06T02:29:23.136Z,102394.03
2019-02-06T02:31:53.541Z,102382.34
2019-02-06T02:34:23.825Z,102375.37
2019-02-06T02:36:54.068Z,102373.58
2019-02-06T02:39:24.325Z,102373.19
2019-02-06T02:41:54.579Z,102361.09
2019-02-06T02:44:24.745Z,102364.16
2019-02-06T02:46:57.454Z,102369.84
2019-02-06T02:49:27.744Z,102369.84
2019-02-06T02:51:58.135Z,102357.61
2019-02-06T02:54:28.532Z,102351.11
2019-02-06T02:56:59.147Z,102353.70
2019-02-06T02:59:29.400Z,102349.22
2019-02-06T03:02:10.926Z,102349.64
2019-02-06T03:04:45.191Z,102355.34
2019-02-06T03:07:15.462Z,102346.98
2019-02-06T03:09:45.786Z,102341.79
2019-02-06T03:12:16.041Z,102340.55
2019-02-06T03:14:46.407Z,102334.47
2019-02-06T03:17:16.683Z,102330.23
2019-02-06T03:19:47.027Z,102314.65
2019-02-06T03:22:17.727Z,102316.91
2019-02-06T03:24:47.965Z,102312.60
2019-02-06T03:27:18.203Z,102303.51
2019-02-06T03:29:48.379Z,102299.20
2019-02-06T03:32:18.626Z,102294.97
2019-02-06T03:34:48.949Z,102291.07
2019-02-06T03:37:19.205Z,102283.19
2019-02-06T03:39:49.291Z,102286.20
2019-02-06T03:42:22.134Z,102287.04
2019-02-06T03:44:52.450Z,102284.44
2019-02-06T03:47:22.660Z,102280.95
2019-02-06T03:49:53.102Z,102276.70
2019-02-06T03:52:23.350Z,102279.70
2019-02-06T03:54:53.602Z,102272.00
2019-02-06T03:57:23.914Z,102271.91
2019-02-06T03:59:54.237Z,102271.58
2019-02-06T04:02:24.576Z,102285.07
2019-02-06T04:04:55.066Z,102281.17
2019-02-06T04:07:25.329Z,102278.63
2019-02-06T04:09:55.645Z,102266.88
2019-02-06T04:12:25.906Z,102260.86
2019-02-06T04:14:56.218Z,102262.16
2019-02-06T04:17:26.393Z,102257.37
2019-02-06T04:19:56.684Z,102255.66
2019-02-06T04:22:26.886Z,102267.34
2019-02-06T04:24:57.081Z,102266.52
2019-02-06T04:27:27.296Z,102265.22
2019-02-06T04:29:57.649Z,102259.97
2019-02-06T04:32:28.398Z,102266.19
2019-02-06T04:34:58.675Z,102256.29
2019-02-06T04:37:28.881Z,102249.12
2019-02-06T04:39:59.079Z,102244.39
2019-02-06T04:42:29.227Z,102237.48
2019-02-06T04:44:59.403Z,102231.95
2019-02-06T04:47:30.019Z,102222.93
2019-02-06T04:50:00.278Z,102212.53
2019-02-06T04:52:30.632Z,102226.08
2019-02-06T04:55:00.973Z,102213.96
2019-02-06T04:57:31.173Z,102220.95
2019-02-06T05:00:01.513Z,102226.16
2019-02-06T05:02:31.833Z,102223.60
2019-02-06T05:05:02.045Z,102226.63
2019-02-06T05:07:32.465Z,102211.52
2019-02-06T05:10:02.682Z,102216.72
2019-02-06T05:12:32.973Z,102205.03
2019-02-06T05:15:03.613Z,102210.69
2019-02-06T05:17:33.803Z,102222.88
2019-02-06T05:20:07.502Z,102207.75
2019-02-06T05:22:37.714Z,102200.79
2019-02-06T05:25:08.116Z,102199.07
2019-02-06T05:27:38.639Z,102190.39
2019-02-06T05:30:09.181Z,102187.38
2019-02-06T05:32:42.795Z,102191.27
2019-02-06T05:35:11.511Z,102196.05
2019-02-06T05:37:41.916Z,102183.94
2019-02-06T05:40:14.558Z,102174.42
2019-02-06T05:42:46.385Z,102175.73
2019-02-06T05:45:17.094Z,102170.52
2019-02-06T05:47:47.583Z,102164.03
2019-02-06T05:50:21.612Z,102170.95
2019-02-06T05:52:52.214Z,102166.58
2019-02-06T05:55:23.049Z,102155.35
2019-02-06T05:57:53.813Z,102164.78
2019-02-06T06:00:38.017Z,102155.35
2019-02-06T06:03:08.643Z,102163.98
2019-02-06T06:05:41.018Z,102167.55
2019-02-06T06:08:11.359Z,102168.09
2019-02-06T06:10:42.008Z,102170.19
2019-02-06T06:13:12.385Z,102161.92
2019-02-06T06:15:53.702Z,102161.09
2019-02-06T06:18:24.400Z,102160.29
2019-02-06T06:20:55.270Z,102153.29
2019-02-06T06:23:26.030Z,102152.70
2019-02-06T06:25:56.727Z,102151.11
2019-02-06T06:28:29.392Z,102156.80
2019-02-06T06:30:59.990Z,102156.39
2019-02-06T06:33:36.818Z,102156.39
2019-02-06T06:36:07.380Z,102154.25
2019-02-06T06:38:38.072Z,102160.75
2019-02-06T06:41:08.698Z,102159.03
2019-02-06T06:43:39.408Z,102142.51
2019-02-06T06:46:10.084Z,102132.16
2019-02-06T06:48:40.933Z,102140.38
2019-02-06T06:51:11.614Z,102143.05
2019-02-06T06:53:42.271Z,102150.02
2019-02-06T06:56:12.928Z,102150.97
2019-02-06T06:58:43.512Z,102150.17
2019-02-06T07:01:17.068Z,102147.20
2019-02-06T07:03:47.818Z,102139.40
2019-02-06T07:06:18.386Z,102151.59
2019-02-06T07:08:49.189Z,102144.21
2019-02-06T07:11:19.698Z,102137.71
2019-02-06T07:13:53.231Z,102143.45
2019-02-06T07:16:25.639Z,102146.94
2019-02-06T07:18:55.920Z,102143.80
2019-02-06T07:21:26.471Z,102150.83
2019-02-06T07:23:58.774Z,102155.95
2019-02-06T07:26:56.952Z,102158.09
2019-02-06T07:29:27.470Z,102154.61
2019-02-06T07:31:57.803Z,102157.55
2019-02-06T07:34:28.536Z,102160.48
2019-02-06T07:36:58.945Z,102157.81
2019-02-06T07:39:29.495Z,102148.09
2019-02-06T07:42:00.151Z,102161.38
2019-02-06T07:44:30.651Z,102159.66
2019-02-06T07:47:01.432Z,102155.00
2019-02-06T07:49:33.923Z,102148.11
2019-02-06T07:52:04.737Z,102145.02
2019-02-06T07:54:35.464Z,102152.89
2019-02-06T07:57:05.932Z,102142.57
2019-02-06T07:59:36.694Z,102142.20
2019-02-06T08:02:07.395Z,102142.27
2019-02-06T08:04:38.048Z,102146.67
2019-02-06T08:07:10.510Z,102139.83
2019-02-06T08:09:41.300Z,102140.29
2019-02-06T08:12:13.772Z,102147.88
2019-02-06T08:14:44.353Z,102151.50
2019-02-06T08:17:15.086Z,102149.78
2019-02-06T08:19:45.846Z,102145.81
2019-02-06T08:22:17.863Z,102148.02
2019-02-06T08:24:51.167Z,102150.41
2019-02-06T08:27:21.946Z,102152.20
2019-02-06T08:29:52.788Z,102151.63
2019-02-06T08:32:23.438Z,102159.01
2019-02-06T08:34:54.433Z,102173.11
2019-02-06T08:37:26.806Z,102180.59
2019-02-06T08:39:57.537Z,102185.27
2019-02-06T08:42:30.231Z,102191.48
2019-02-06T08:45:01.087Z,102188.52
2019-02-06T08:47:33.161Z,102190.36
2019-02-06T08:50:03.758Z,102183.99
2019-02-06T08:52:34.376Z,102184.12
2019-02-06T08:55:06.102Z,102187.38
2019-02-06T08:57:36.758Z,102181.64
2019-02-06T09:00:09.812Z,102180.97
2019-02-06T09:02:40.487Z,102177.54
2019-02-06T09:05:11.239Z,102169.36
2019-02-06T09:07:44.241Z,102172.42
2019-02-06T09:10:18.264Z,102171.75
2019-02-06T09:12:49.104Z,102173.86
2019-02-06T09:15:20.030Z,102172.09
2019-02-06T09:17:50.741Z,102177.38
2019-02-06T09:20:24.125Z,102170.92
2019-02-06T09:22:55.232Z,102175.45
2019-02-06T09:25:25.948Z,102175.57
2019-02-06T09:27:58.452Z,102180.77
2019-02-06T09:30:31.110Z,102182.02
2019-02-06T09:33:01.661Z,102174.23
2019-02-06T09:35:31.963Z,102173.81
2019-02-06T09:38:02.428Z,102175.11
2019-02-06T09:40:33.227Z,102169.91
2019-02-06T09:43:03.879Z,102165.13
2019-02-06T09:45:39.625Z,102165.39
2019-02-06T09:48:11.656Z,102173.19
2019-02-06T09:50:43.644Z,102170.17
2019-02-06T09:53:15.453Z,102165.89
2019-02-06T09:55:45.831Z,102168.07
2019-02-06T09:58:16.098Z,102169.58
2019-02-06T10:00:46.811Z,102168.41
2019-02-06T10:03:17.130Z,102161.23
2019-02-06T10:05:47.525Z,102165.50
2019-02-06T10:08:17.853Z,102170.06
2019-02-06T10:10:48.331Z,102171.10
2019-02-06T10:13:18.781Z,102167.06
2019-02-06T10:15:51.834Z,102174.49
2019-02-06T10:18:22.299Z,102176.75
2019-02-06T10:20:53.472Z,102176.75
2019-02-06T10:23:29.595Z,102169.79
2019-02-06T10:25:59.952Z,102178.47
2019-02-06T10:28:31.895Z,102184.38
2019-02-06T10:31:05.005Z,102178.07
2019-02-06T10:33:38.348Z,102176.48
2019-02-06T10:36:08.757Z,102176.97
2019-02-06T10:38:41.826Z,102180.45
2019-02-06T10:41:12.078Z,102174.75
2019-02-06T10:43:42.446Z,102168.67
2019-02-06T10:46:18.315Z,102165.73
2019-02-06T10:48:48.830Z,102158.55
2019-02-06T10:51:19.191Z,102154.45
2019-02-06T10:53:49.625Z,102152.93
2019-02-06T10:56:22.090Z,102161.69
2019-02-06T10:58:55.404Z,102157.06
2019-02-06T11:01:30.472Z,102159.86
2019-02-06T11:04:01.071Z,102160.78
2019-02-06T11:06:31.598Z,102152.98
2019-02-06T11:09:01.912Z,102160.94
2019-02-06T11:11:36.328Z,102156.61
2019-02-06T11:14:09.886Z,102154.89
2019-02-06T11:16:40.257Z,102144.02
2019-02-06T11:19:10.620Z,102149.11
2019-02-06T11:21:42.111Z,102149.72
2019-02-06T11:24:12.544Z,102144.78
2019-02-06T11:26:42.929Z,102151.05
2019-02-06T11:29:15.418Z,102151.20
2019-02-06T11:31:45.859Z,102152.55
2019-02-06T11:34:16.192Z,102145.43
2019-02-06T11:36:47.657Z,102146.00
2019-02-06T11:39:23.991Z,102140.02
2019-02-06T11:41:54.340Z,102148.78
2019-02-06T11:44:24.575Z,102136.72
2019-02-06T11:46:54.858Z,102140.32
2019-02-06T11:49:30.082Z,102130.05
2019-02-06T11:52:00.507Z,102123.58
2019-02-06T11:54:30.629Z,102130.93
2019-02-06T11:57:04.279Z,102123.16
2019-02-06T11:59:34.568Z,102123.66
2019-02-06T12:02:04.965Z,102124.11
2019-02-06T12:04:35.322Z,102127.56
2019-02-06T12:07:06.384Z,102126.25
2019-02-06T12:09:38.153Z,102131.05
2019-02-06T12:12:08.393Z,102132.88
2019-02-06T12:14:38.779Z,102126.02
2019-02-06T12:17:09.011Z,102121.66
2019-02-06T12:19:39.458Z,102123.91
2019-02-06T12:22:09.801Z,102117.23
2019-02-06T12:24:40.430Z,102118.70
2019-02-06T12:27:10.952Z,102123.53
2019-02-06T12:29:42.637Z,102116.67
2019-02-06T12:32:12.941Z,102117.86
2019-02-06T12:34:43.283Z,102121.77
2019-02-06T12:37:13.632Z,102123.07
2019-02-06T12:40:58.733Z,102103.36
2019-02-06T12:56:44.549Z,102082.57
2019-02-06T12:59:14.919Z,102067.97
2019-02-06T13:01:45.583Z,102069.14
2019-02-06T13:04:15.952Z,102058.66
2019-02-06T13:06:46.230Z,102055.23
2019-02-06T13:09:21.371Z,102052.62
2019-02-06T13:11:54.262Z,102056.59
2019-02-06T13:14:25.038Z,102055.33
2019-02-06T13:16:58.225Z,102062.33
2019-02-06T13:19:46.587Z,102058.78
2019-02-06T13:22:55.522Z,102053.92
2019-02-06T13:25:28.913Z,102056.44
2019-02-06T13:28:01.670Z,102058.55
2019-02-06T13:30:41.712Z,101973.41
2019-02-06T13:33:11.837Z,102049.43
2019-02-06T13:35:45.131Z,102046.82
2019-02-06T13:38:26.249Z,102039.78
2019-02-06T13:40:56.862Z,102041.16
2019-02-06T13:43:28.841Z,102046.82
2019-02-06T13:45:59.243Z,102038.06
2019-02-06T13:48:33.938Z,102038.06
2019-02-06T13:51:15.595Z,102037.60
2019-02-06T13:53:36.628Z,102033.56
2019-02-06T13:56:09.032Z,102045.66
2019-02-06T13:59:12.206Z,102046.95
2019-02-06T14:01:44.197Z,102043.95
2019-02-06T14:04:14.644Z,102045.27
2019-02-06T14:06:44.907Z,102040.44
2019-02-06T14:09:22.623Z,102039.13
2019-02-06T14:11:49.298Z,102029.10
2019-02-06T14:14:21.708Z,102027.80
2019-02-06T14:16:54.267Z,102037.80
2019-02-06T14:19:24.658Z,102034.25
2019-02-06T14:21:55.031Z,102033.77
2019-02-06T14:24:50.572Z,102029.85
2019-02-06T14:28:04.371Z,102026.72
2019-02-06T14:31:29.832Z,102017.86
2019-02-06T14:34:39.657Z,102011.25
2019-02-06T14:37:52.749Z,102006.86
2019-02-06T14:40:51.189Z,102009.98
2019-02-06T14:43:42.224Z,102004.90
2019-02-06T14:47:22.115Z,102002.72
2019-02-06T14:50:49.469Z,102002.33
2019-02-06T14:54:04.713Z,101998.31
2019-02-06T14:57:25.539Z,101996.07
2019-02-06T15:01:00.127Z,101989.63
2019-02-06T15:04:49.170Z,101988.74
2019-02-06T15:07:54.977Z,101980.80
2019-02-06T15:11:20.118Z,101976.07
2019-02-06T15:14:26.842Z,101984.41
2019-02-06T15:17:37.571Z,101971.83
2019-02-06T15:20:27.235Z,101971.90
2019-02-06T15:23:58.401Z,101968.44
2019-02-06T15:27:13.829Z,101966.78
2019-02-06T15:30:26.786Z,101961.11
2019-02-06T15:34:10.884Z,101959.81
2019-02-06T15:37:15.481Z,101963.30
2019-02-06T15:40:43.064Z,101968.41
2019-02-06T15:44:03.352Z,101963.14
2019-02-06T15:47:17.604Z,101958.22
2019-02-06T15:50:44.878Z,101962.09
2019-02-06T15:54:01.490Z,101959.07
2019-02-06T15:57:36.553Z,101953.80
2019-02-06T16:00:56.038Z,101961.09
2019-02-06T16:04:56.207Z,101954.55
2019-02-06T16:07:55.811Z,101949.70
2019-02-06T16:11:42.653Z,101946.44
2019-02-06T16:14:43.240Z,101948.63
2019-02-06T16:18:01.062Z,101943.31
2019-02-06T16:21:25.724Z,101938.11
2019-02-06T16:24:27.405Z,101936.34
2019-02-06T16:28:13.092Z,101922.31
2019-02-06T16:31:13.917Z,101930.20
2019-02-06T16:34:44.269Z,101940.97
2019-02-06T16:38:01.014Z,101949.60
2019-02-06T16:41:36.062Z,101950.91
2019-02-06T16:44:43.022Z,101957.41
2019-02-06T16:48:00.368Z,101953.05
2019-02-06T16:51:13.591Z,101962.17
2019-02-06T16:54:39.108Z,101962.98
2019-02-06T16:58:04.765Z,101960.80
2019-02-06T17:01:20.660Z,101954.72
2019-02-06T17:04:46.488Z,101949.92
2019-02-06T17:08:05.116Z,101951.69
2019-02-06T17:11:49.139Z,101961.65
2019-02-06T17:15:26.519Z,101963.92
2019-02-06T17:18:42.876Z,101959.14
2019-02-06T17:22:11.025Z,101945.66
2019-02-06T17:25:46.412Z,101956.96
2019-02-06T17:28:39.010Z,101956.96
2019-02-06T17:31:58.970Z,101944.36
2019-02-06T17:35:05.095Z,101942.14
2019-02-06T17:38:44.493Z,101929.70
2019-02-06T17:42:18.438Z,101928.92
2019-02-06T17:46:04.203Z,101943.31
2019-02-06T17:49:37.192Z,101949.38
2019-02-06T17:52:48.958Z,101936.28
2019-02-06T17:55:26.158Z,101933.32
2019-02-06T17:57:59.567Z,101932.05
2019-02-06T18:01:07.644Z,101933.84
2019-02-06T18:03:55.177Z,101928.63
2019-02-06T18:06:25.461Z,101919.51
2019-02-06T18:08:57.232Z,101923.05
2019-02-06T18:11:27.598Z,101914.03
2019-02-06T18:13:57.833Z,101894.56
2019-02-06T18:16:28.867Z,101900.19
2019-02-06T18:18:59.199Z,101889.80
2019-02-06T18:21:29.587Z,101887.62
2019-02-06T18:23:59.877Z,101889.80
2019-02-06T18:26:30.801Z,101893.68
2019-02-06T18:29:01.191Z,101879.73
2019-02-06T18:31:31.487Z,101875.80
2019-02-06T18:34:02.177Z,101877.55
2019-02-06T18:36:32.633Z,101870.95
2019-02-06T18:39:04.564Z,101874.73
2019-02-06T18:41:35.551Z,101889.03
2019-02-06T18:44:07.016Z,101892.97
2019-02-06T18:46:37.518Z,101892.97
2019-02-06T18:49:09.350Z,101901.63
2019-02-06T18:51:39.773Z,101914.30
2019-02-06T18:54:10.923Z,101904.33
2019-02-06T18:56:41.371Z,101905.25
2019-02-06T18:59:11.805Z,101898.83
2019-02-06T19:01:42.160Z,101899.25
2019-02-06T19:04:19.186Z,101897.98
2019-02-06T19:06:49.856Z,101886.67
2019-02-06T19:09:20.317Z,101881.04
2019-02-06T19:11:50.708Z,101873.28
2019-02-06T19:14:21.131Z,101872.47
2019-02-06T19:16:51.819Z,101865.11
2019-02-06T19:19:25.478Z,101862.95
2019-02-06T19:21:54.229Z,101860.84
2019-02-06T19:24:24.561Z,101860.84
2019-02-06T19:26:54.855Z,101853.02
2019-02-06T19:29:25.626Z,101848.33
2019-02-06T19:31:55.996Z,101846.59
2019-02-06T19:34:26.310Z,101838.36
2019-02-06T19:36:56.665Z,101831.45
2019-02-06T19:39:27.129Z,101830.14
2019-02-06T19:41:58.799Z,101829.78
2019-02-06T19:44:31.513Z,101823.66
2019-02-06T19:47:01.862Z,101820.66
2019-02-06T19:49:32.253Z,101818.99
2019-02-06T19:52:02.500Z,101805.11
2019-02-06T19:54:32.907Z,101799.47
2019-02-06T19:57:03.297Z,101802.14
2019-02-06T19:59:33.580Z,101799.95
2019-02-06T20:02:03.950Z,101796.08
2019-02-06T20:04:34.203Z,101792.16
2019-02-06T20:07:04.649Z,101799.17
2019-02-06T20:09:35.069Z,101787.86
2019-02-06T20:12:05.374Z,101775.23
2019-02-06T20:14:35.683Z,101778.31
2019-02-06T20:17:07.111Z,101777.44
2019-02-06T20:19:37.431Z,101764.35
2019-02-06T20:22:07.840Z,101766.59
2019-02-06T20:24:37.976Z,101762.68
2019-02-06T20:27:08.153Z,101756.16
2019-02-06T20:29:38.443Z,101747.86
2019-02-06T20:32:09.081Z,101747.86
2019-02-06T20:34:39.409Z,101734.38
2019-02-06T20:37:09.735Z,101736.14
2019-02-06T20:39:40.090Z,101736.62
2019-02-06T20:42:10.525Z,101731.43
2019-02-06T20:44:40.841Z,101732.34
2019-02-06T20:47:11.372Z,101723.67
2019-02-06T20:49:41.748Z,101727.16
2019-02-06T20:52:12.023Z,101727.64
2019-02-06T20:54:42.188Z,101727.27
2019-02-06T20:57:15.756Z,101725.98
2019-02-06T20:59:46.292Z,101715.17
2019-02-06T21:02:16.987Z,101719.53
2019-02-06T21:04:47.236Z,101720.41
2019-02-06T21:07:20.071Z,101725.23
2019-02-06T21:09:50.971Z,101709.16
2019-02-06T21:12:21.341Z,101709.98
2019-02-06T21:14:51.728Z,101713.52
2019-02-06T21:17:22.048Z,101708.30
2019-02-06T21:19:52.387Z,101705.76
2019-02-06T21:22:22.762Z,101698.81
2019-02-06T21:24:53.054Z,101695.39
2019-02-06T21:27:23.292Z,101694.53
2019-02-06T21:29:53.835Z,101691.07
2019-02-06T21:32:24.259Z,101680.25
2019-02-06T21:34:54.388Z,101670.22
2019-02-06T21:37:27.048Z,101667.66
2019-02-06T21:39:56.655Z,101659.84
2019-02-06T21:42:26.993Z,101659.84
2019-02-06T21:44:59.892Z,101656.81
2019-02-06T21:47:31.045Z,101653.81
2019-02-06T21:50:05.934Z,101642.95
2019-02-06T21:52:38.127Z,101635.58
2019-02-06T21:55:10.078Z,101635.19
2019-02-06T21:57:40.471Z,101632.16
2019-02-06T22:00:21.486Z,101633.03
2019-02-06T22:02:55.250Z,101629.12
2019-02-06T22:05:25.745Z,101619.99
2019-02-06T22:07:56.103Z,101625.28
2019-02-06T22:10:26.926Z,101624.41
2019-02-06T22:12:57.366Z,101625.33
2019-02-06T22:15:29.368Z,101621.42
2019-02-06T22:17:59.736Z,101620.13
2019-02-06T22:20:30.473Z,101607.08
2019-02-06T22:23:00.792Z,101598.41
2019-02-06T22:25:32.868Z,101594.12
2019-02-06T22:28:03.175Z,101583.25
2019-02-06T22:30:33.534Z,101570.16
2019-02-06T22:33:05.270Z,101562.39
2019-02-06T22:35:35.691Z,101563.69
2019-02-06T22:38:08.307Z,101556.69
2019-02-06T22:40:38.582Z,101551.48
2019-02-06T22:43:08.805Z,101547.56
2019-02-06T22:45:39.102Z,101542.34
2019-02-06T22:48:09.472Z,101540.22
2019-02-06T22:50:39.977Z,101534.16
2019-02-06T22:53:10.370Z,101529.86
2019-02-06T22:55:40.843Z,101535.51
2019-02-06T22:58:11.262Z,101532.04
2019-02-06T23:01:15.203Z,101532.04
2019-02-06T23:03:48.289Z,101529.03
2019-02-06T23:06:18.692Z,101525.08
2019-02-06T23:08:49.077Z,101519.00
2019-02-06T23:11:19.482Z,101515.14
2019-02-06T23:13:49.861Z,101504.34
2019-02-06T23:16:20.097Z,101507.44
2019-02-06T23:18:52.398Z,101501.80
2019-02-06T23:21:22.982Z,101500.54
2019-02-06T23:23:53.270Z,101510.09
2019-02-06T23:26:23.414Z,101501.02
2019-02-06T23:28:53.683Z,101497.50
2019-02-06T23:31:23.966Z,101488.42
2019-02-06T23:33:54.717Z,101481.95
2019-02-06T23:36:25.017Z,101476.31
2019-02-06T23:38:55.420Z,101473.27
2019-02-06T23:41:25.682Z,101463.27
2019-02-06T23:43:55.955Z,101452.41
2019-02-06T23:46:26.323Z,101457.23
2019-02-06T23:48:56.648Z,101447.28
2019-02-06T23:51:26.907Z,101438.55
2019-02-06T23:53:57.085Z,101437.30
2019-02-06T23:56:27.343Z,101433.83
2019-02-06T23:58:58.612Z,101418.61
